| time (UTC) | temp F | wind direction | speed MPH | gust MPH | rain 1hr in | rain 24hr in | rain mn in | humidity % | barometer mb |
| 20260503184604 | 63 | 250 | 3.0 | 9.0 | 0.00 | 0.00 | 0.00 | 39 | 1004.2 |
| 20260503184515 | 63 | 257 | 3.0 | 9.0 | 0.00 | 0.00 | 0.00 | 38 | 1004.2 |
| 20260503184109 | 64 | 195 | 3.0 | 9.0 | 0.00 | 0.00 | 0.00 | 41 | 1004.3 |
| 20260503184004 | 63 | 223 | 4.0 | 7.0 | 0.00 | 0.00 | 0.00 | 39 | 1004.3 |
| 20260503183505 | 64 | 213 | 3.0 | 7.0 | 0.00 | 0.00 | 0.00 | 37 | 1004.3 |
| 20260503183004 | 64 | 329 | 3.0 | 8.0 | 0.00 | 0.00 | 0.00 | 39 | 1004.4 |
| 20260503182507 | 63 | 213 | 4.0 | 8.0 | 0.00 | 0.00 | 0.00 | 39 | 1004.6 |
| 20260503182104 | 63 | 283 | 3.0 | 7.0 | 0.00 | 0.00 | 0.00 | 35 | 1004.5 |
| 20260503182005 | 63 | 206 | 3.0 | 7.0 | 0.00 | 0.00 | 0.00 | 42 | 1004.6 |
| 20260503181604 | 63 | 317 | 3.0 | 7.0 | 0.00 | 0.00 | 0.00 | 37 | 1004.7 |
| 20260503181505 | 63 | 208 | 4.0 | 7.0 | 0.00 | 0.00 | 0.00 | 35 | 1004.7 |
| 20260503181103 | 63 | 185 | 4.0 | 7.0 | 0.00 | 0.00 | 0.00 | 38 | 1004.6 |
| 20260503181004 | 63 | 221 | 3.0 | 9.0 | 0.00 | 0.00 | 0.00 | 40 | 1004.7 |
| 20260503180019 | 64 | 226 | 4.0 | 10.0 | 0.00 | 0.00 | 0.00 | 35 | 1004.8 |
| 20260503175505 | 64 | 178 | 4.0 | 7.0 | 0.00 | 0.00 | 0.00 | 36 | 1004.8 |
| 20260503175104 | 64 | 195 | 3.0 | 7.0 | 0.00 | 0.00 | 0.00 | 35 | 1004.7 |
| 20260503174505 | 64 | 228 | 3.0 | 6.0 | 0.00 | 0.00 | 0.00 | 41 | 1004.9 |
| 20260503174108 | 64 | 215 | 3.0 | 5.0 | 0.00 | 0.00 | 0.00 | 35 | 1004.9 |
| 20260503174010 | 64 | 206 | 4.0 | 5.0 | 0.00 | 0.00 | 0.00 | 36 | 1004.9 |
| 20260503173005 | 64 | 248 | 2.0 | 7.0 | 0.00 | 0.00 | 0.00 | 40 | 1005.2 |
| 20260503172004 | 64 | 221 | 2.0 | 6.0 | 0.00 | 0.00 | 0.00 | 39 | 1005.4 |
| 20260503171505 | 64 | 232 | 3.0 | 7.0 | 0.00 | 0.00 | 0.00 | 39 | 1005.6 |
| 20260503171004 | 64 | 319 | 2.0 | 7.0 | 0.00 | 0.00 | 0.00 | 38 | 1005.6 |
| 20260503170604 | 64 | 344 | 2.0 | 5.0 | 0.00 | 0.00 | 0.00 | 44 | 1005.7 |
| 20260503170504 | 64 | 135 | 2.0 | 5.0 | 0.00 | 0.00 | 0.00 | 40 | 1005.7 |
| 20260503151006 | 58 | 156 | 1.0 | 4.0 | 0.00 | 0.00 | 0.00 | 53 | 1007.1 |
| 20260503131004 | 46 | 213 | 1.0 | 4.0 | 0.00 | 0.00 | 0.00 | 68 | 1007.1 |
| 20260503130515 | 45 | 307 | 1.0 | 6.0 | 0.00 | 0.00 | 0.00 | 70 | 1007.0 |
| 20260503090504 | 35 | 250 | 1.0 | 2.0 | 0.00 | 0.00 | 0.00 | 90 | 1005.7 |
| 20260503081519 | 34 | 269 | 0.0 | 1.0 | 0.00 | 0.00 | 0.00 | 88 | 1005.6 |
| 20260503081504 | 34 | 178 | 0.0 | 1.0 | 0.00 | 0.00 | 0.00 | 88 | 1005.6 |
| 20260503081005 | 34 | 223 | 0.0 | 1.0 | 0.00 | 0.00 | 0.00 | 88 | 1005.7 |
| 20260503080608 | 34 | 269 | 0.0 | 1.0 | 0.00 | 0.00 | 0.00 | 88 | 1005.6 |
| 20260503080504 | 34 | 223 | 0.0 | 1.0 | 0.00 | 0.00 | 0.00 | 88 | 1005.6 |
| 20260503072603 | 34 | 46 | 0.0 | 1.0 | 0.00 | 0.00 | 0.00 | 87 | 1005.5 |
| 20260503072504 | 34 | 46 | 0.0 | 1.0 | 0.00 | 0.00 | 0.00 | 87 | 1005.5 |
| 20260503072004 | 34 | 206 | 0.0 | 1.0 | 0.00 | 0.00 | 0.00 | 87 | 1005.4 |
| 20260503071514 | 34 | 178 | 0.0 | 1.0 | 0.00 | 0.00 | 0.00 | 86 | 1005.5 |
| 20260503070608 | 34 | 178 | 0.0 | 1.0 | 0.00 | 0.00 | 0.00 | 86 | 1005.5 |
| 20260503070509 | 35 | 46 | 0.0 | 1.0 | 0.00 | 0.00 | 0.00 | 86 | 1005.5 |
| 20260503055007 | 36 | 178 | 0.0 | 0.0 | 0.00 | 0.00 | 0.00 | 83 | 1005.8 |
| 20260503054518 | 37 | 178 | 0.0 | 1.0 | 0.00 | 0.00 | 0.00 | 83 | 1005.8 |
| 20260503054504 | 36 | 178 | 0.0 | 1.0 | 0.00 | 0.00 | 0.00 | 83 | 1005.8 |
| 20260503054004 | 37 | 178 | 0.0 | 1.0 | 0.00 | 0.00 | 0.00 | 83 | 1005.8 |
| 20260503053519 | 37 | 46 | 0.0 | 1.0 | 0.00 | 0.00 | 0.00 | 83 | 1005.8 |
| 20260503053505 | 37 | 89 | 0.0 | 1.0 | 0.00 | 0.00 | 0.00 | 83 | 1005.8 |
| 20260503053018 | 37 | 331 | 0.0 | 1.0 | 0.00 | 0.00 | 0.00 | 83 | 1005.8 |
| 20260503053004 | 37 | 314 | 0.0 | 1.0 | 0.00 | 0.00 | 0.00 | 83 | 1005.8 |
| 20260503052504 | 37 | 1 | 0.0 | 1.0 | 0.00 | 0.00 | 0.00 | 83 | 1005.9 |
| 20260503052004 | 37 | 269 | 1.0 | 1.0 | 0.00 | 0.00 | 0.00 | 83 | 1005.9 |
| 20260503051505 | 37 | 234 | 1.0 | 1.0 | 0.00 | 0.00 | 0.00 | 82 | 1005.8 |
| 20260503051019 | 37 | 269 | 1.0 | 1.0 | 0.00 | 0.00 | 0.00 | 82 | 1005.8 |
| 20260503050520 | 37 | 269 | 1.0 | 1.0 | 0.00 | 0.00 | 0.00 | 81 | 1005.9 |
| 20260503050037 | 38 | 269 | 0.0 | 1.0 | 0.00 | 0.00 | 0.00 | 81 | 1005.9 |
| 20260503050015 | 38 | 314 | 0.0 | 1.0 | 0.00 | 0.00 | 0.00 | 81 | 1005.9 |
| 20260503045505 | 38 | 269 | 0.0 | 1.0 | 0.00 | 0.00 | 0.00 | 80 | 1006.0 |
| 20260503045004 | 38 | 269 | 0.0 | 1.0 | 0.00 | 0.00 | 0.00 | 80 | 1005.9 |
| 20260503044519 | 38 | 240 | 0.0 | 1.0 | 0.00 | 0.00 | 0.00 | 79 | 1005.8 |
| 20260503044504 | 38 | 269 | 0.0 | 1.0 | 0.00 | 0.00 | 0.00 | 79 | 1005.8 |
| 20260503044004 | 38 | 269 | 0.0 | 1.0 | 0.00 | 0.00 | 0.00 | 79 | 1005.8 |
| 20260503043515 | 39 | 46 | 0.0 | 1.0 | 0.00 | 0.00 | 0.00 | 79 | 1005.9 |
| 20260503043019 | 39 | 269 | 0.0 | 1.0 | 0.00 | 0.00 | 0.00 | 78 | 1005.9 |
| 20260503042505 | 39 | 269 | 0.0 | 1.0 | 0.00 | 0.00 | 0.00 | 78 | 1005.9 |
| 20260503042004 | 39 | 295 | 0.0 | 2.0 | 0.00 | 0.00 | 0.00 | 77 | 1005.9 |
| 20260503041506 | 39 | 269 | 0.0 | 2.0 | 0.00 | 0.00 | 0.00 | 78 | 1005.9 |
| 20260503041019 | 40 | 223 | 1.0 | 2.0 | 0.00 | 0.00 | 0.00 | 77 | 1005.9 |
| 20260503040012 | 40 | 269 | 0.0 | 1.0 | 0.00 | 0.00 | 0.00 | 76 | 1006.0 |
| 20260503035505 | 40 | 269 | 0.0 | 1.0 | 0.00 | 0.00 | 0.00 | 75 | 1006.1 |
| 20260503034004 | 41 | 269 | 0.0 | 1.0 | 0.00 | 0.00 | 0.00 | 73 | 1006.2 |
| 20260503033515 | 41 | 269 | 0.0 | 1.0 | 0.00 | 0.00 | 0.00 | 72 | 1006.1 |
| 20260503033004 | 42 | 269 | 0.0 | 1.0 | 0.00 | 0.00 | 0.00 | 72 | 1006.1 |
| 20260503032019 | 42 | 240 | 0.0 | 1.0 | 0.00 | 0.00 | 0.00 | 70 | 1006.1 |
| 20260503032005 | 42 | 253 | 0.0 | 1.0 | 0.00 | 0.00 | 0.00 | 70 | 1006.0 |
| 20260503031504 | 43 | 178 | 0.0 | 1.0 | 0.00 | 0.00 | 0.00 | 68 | 1006.0 |
| 20260503030609 | 43 | 269 | 0.0 | 1.0 | 0.00 | 0.00 | 0.00 | 67 | 1006.0 |
| 20260503030505 | 43 | 240 | 0.0 | 1.0 | 0.00 | 0.00 | 0.00 | 66 | 1006.0 |
| 20260503030018 | 44 | 223 | 0.0 | 1.0 | 0.00 | 0.00 | 0.00 | 64 | 1006.0 |
| 20260503025004 | 44 | 269 | 0.0 | 1.0 | 0.00 | 0.00 | 0.00 | 63 | 1006.0 |
| 20260503024505 | 44 | 46 | 0.0 | 1.0 | 0.00 | 0.00 | 0.00 | 61 | 1005.9 |
| 20260503024004 | 44 | 295 | 0.0 | 1.0 | 0.00 | 0.00 | 0.00 | 60 | 1005.9 |
| 20260503023504 | 45 | 331 | 0.0 | 1.0 | 0.00 | 0.00 | 0.00 | 61 | 1005.9 |
| 20260503023018 | 45 | 295 | 0.0 | 1.0 | 0.00 | 0.00 | 0.00 | 61 | 1005.9 |
| 20260503023007 | 45 | 295 | 0.0 | 1.0 | 0.00 | 0.00 | 0.00 | 61 | 1005.8 |
| 20260503022103 | 45 | 269 | 0.0 | 1.0 | 0.00 | 0.00 | 0.00 | 59 | 1005.7 |
| 20260503022004 | 45 | 286 | 0.0 | 1.0 | 0.00 | 0.00 | 0.00 | 58 | 1005.7 |
| 20260503021505 | 46 | 302 | 0.0 | 1.0 | 0.00 | 0.00 | 0.00 | 57 | 1005.7 |
| 20260503021004 | 46 | 314 | 0.0 | 1.0 | 0.00 | 0.00 | 0.00 | 58 | 1005.7 |
| 20260503020018 | 46 | 46 | 0.0 | 1.0 | 0.00 | 0.00 | 0.00 | 55 | 1005.6 |
| 20260503020006 | 46 | 314 | 0.0 | 1.0 | 0.00 | 0.00 | 0.00 | 55 | 1005.5 |
| 20260503015504 | 46 | 314 | 0.0 | 2.0 | 0.00 | 0.00 | 0.00 | 56 | 1005.5 |
| 20260503015004 | 46 | 314 | 1.0 | 3.0 | 0.00 | 0.00 | 0.00 | 56 | 1005.4 |
| 20260503014004 | 47 | 324 | 2.0 | 3.0 | 0.00 | 0.00 | 0.00 | 53 | 1005.2 |
| 20260503013018 | 47 | 327 | 1.0 | 6.0 | 0.00 | 0.00 | 0.00 | 52 | 1005.2 |
| 20260503013004 | 47 | 20 | 1.0 | 6.0 | 0.00 | 0.00 | 0.00 | 53 | 1005.2 |
| 20260503012504 | 47 | 1 | 2.0 | 6.0 | 0.00 | 0.00 | 0.00 | 53 | 1005.0 |
| 20260503012005 | 47 | 344 | 2.0 | 4.0 | 0.00 | 0.00 | 0.00 | 53 | 1005.0 |
| 20260503011504 | 47 | 1 | 2.0 | 4.0 | 0.00 | 0.00 | 0.00 | 53 | 1004.9 |
| 20260503011005 | 48 | 349 | 1.0 | 3.0 | 0.00 | 0.00 | 0.00 | 52 | 1004.9 |
| 20260503010019 | 48 | 331 | 2.0 | 3.0 | 0.00 | 0.00 | 0.00 | 51 | 1004.8 |
| 20260503010006 | 48 | 331 | 2.0 | 3.0 | 0.00 | 0.00 | 0.00 | 51 | 1004.9 |
| 20260503005505 | 48 | 327 | 1.0 | 5.0 | 0.00 | 0.00 | 0.00 | 51 | 1004.8 |
| 20260503004504 | 49 | 18 | 1.0 | 3.0 | 0.00 | 0.00 | 0.00 | 50 | 1004.7 |
| 20260503004005 | 49 | 352 | 2.0 | 3.0 | 0.00 | 0.00 | 0.00 | 49 | 1004.7 |
| 20260503003505 | 49 | 13 | 1.0 | 3.0 | 0.00 | 0.00 | 0.00 | 50 | 1004.7 |
| 20260503003018 | 49 | 1 | 1.0 | 3.0 | 0.00 | 0.00 | 0.00 | 49 | 1004.6 |
| 20260503003006 | 49 | 89 | 1.0 | 3.0 | 0.00 | 0.00 | 0.00 | 49 | 1004.5 |
| 20260503002004 | 50 | 342 | 2.0 | 5.0 | 0.00 | 0.00 | 0.00 | 47 | 1004.4 |
| 20260503001504 | 50 | 223 | 1.0 | 4.0 | 0.00 | 0.00 | 0.00 | 48 | 1004.3 |
| 20260503001015 | 50 | 318 | 1.0 | 6.0 | 0.00 | 0.00 | 0.00 | 49 | 1004.3 |
| 20260503000508 | 50 | 344 | 1.0 | 6.0 | 0.00 | 0.00 | 0.00 | 47 | 1004.2 |
| 20260503000029 | 51 | 1 | 2.0 | 4.0 | 0.00 | 0.00 | 0.00 | 48 | 1004.2 |
| 20260503000005 | 51 | 9 | 2.0 | 4.0 | 0.00 | 0.00 | 0.00 | 48 | 1004.2 |
| 20260502235504 | 51 | 165 | 1.0 | 4.0 | 0.00 | 0.00 | 0.00 | 47 | 1004.2 |
| 20260502235004 | 51 | 323 | 1.0 | 4.0 | 0.00 | 0.00 | 0.00 | 46 | 1004.2 |
| 20260502234518 | 51 | 152 | 2.0 | 6.0 | 0.00 | 0.00 | 0.00 | 46 | 1004.1 |
| 20260502234009 | 52 | 25 | 2.0 | 6.0 | 0.00 | 0.00 | 0.00 | 45 | 1004.1 |
| 20260502233603 | 52 | 314 | 2.0 | 6.0 | 0.00 | 0.00 | 0.00 | 45 | 1004.0 |
| 20260502233516 | 52 | 250 | 2.0 | 4.0 | 0.00 | 0.00 | 0.00 | 45 | 1004.1 |
| 20260502233019 | 52 | 327 | 2.0 | 4.0 | 0.00 | 0.00 | 0.00 | 45 | 1004.1 |
| 20260502232505 | 52 | 318 | 2.0 | 5.0 | 0.00 | 0.00 | 0.00 | 44 | 1004.1 |
| 20260502232004 | 53 | 324 | 2.0 | 7.0 | 0.00 | 0.00 | 0.00 | 46 | 1004.1 |
| 20260502231603 | 53 | 326 | 3.0 | 7.0 | 0.00 | 0.00 | 0.00 | 46 | 1004.0 |
| 20260502231504 | 53 | 56 | 2.0 | 5.0 | 0.00 | 0.00 | 0.00 | 44 | 1004.0 |
| 20260502231004 | 53 | 115 | 2.0 | 5.0 | 0.00 | 0.00 | 0.00 | 44 | 1004.1 |
| 20260502230506 | 53 | 44 | 2.0 | 5.0 | 0.00 | 0.00 | 0.00 | 42 | 1004.0 |
| 20260502230018 | 53 | 322 | 2.0 | 5.0 | 0.00 | 0.00 | 0.00 | 42 | 1003.9 |
| 20260502230005 | 53 | 194 | 2.0 | 5.0 | 0.00 | 0.00 | 0.00 | 42 | 1004.0 |
| 20260502225016 | 53 | 325 | 2.0 | 5.0 | 0.00 | 0.00 | 0.00 | 46 | 1003.9 |
| 20260502224516 | 53 | 347 | 2.0 | 5.0 | 0.00 | 0.00 | 0.00 | 45 | 1003.9 |
| 20260502224015 | 53 | 1 | 3.0 | 5.0 | 0.00 | 0.00 | 0.00 | 43 | 1003.9 |
| 20260502223518 | 53 | 89 | 2.0 | 8.0 | 0.00 | 0.00 | 0.00 | 42 | 1003.9 |
| 20260502223504 | 53 | 352 | 3.0 | 8.0 | 0.00 | 0.00 | 0.00 | 42 | 1003.9 |
| 20260502223018 | 53 | 1 | 3.0 | 8.0 | 0.00 | 0.00 | 0.00 | 41 | 1003.9 |
| 20260502223004 | 53 | 346 | 3.0 | 8.0 | 0.00 | 0.00 | 0.00 | 41 | 1003.9 |
| 20260502222504 | 53 | 302 | 2.0 | 6.0 | 0.00 | 0.00 | 0.00 | 41 | 1003.9 |
| 20260502222004 | 53 | 305 | 3.0 | 8.0 | 0.00 | 0.00 | 0.00 | 43 | 1003.9 |
| 20260502221516 | 53 | 56 | 3.0 | 8.0 | 0.00 | 0.00 | 0.00 | 43 | 1003.9 |
| 20260502221114 | 53 | 42 | 4.0 | 6.0 | 0.00 | 0.00 | 0.00 | 42 | 1003.8 |
| 20260502221005 | 53 | 333 | 4.0 | 6.0 | 0.00 | 0.00 | 0.00 | 40 | 1003.8 |
| 20260502220505 | 53 | 213 | 3.0 | 6.0 | 0.00 | 0.00 | 0.00 | 42 | 1003.8 |
| 20260502220019 | 53 | 324 | 2.0 | 5.0 | 0.00 | 0.00 | 0.00 | 43 | 1003.7 |
| 20260502220008 | 53 | 339 | 144.0 | 655.0 | 7.93 | 0.07 | 0.00 | 43 | |
| 20260502215603 | 53 | 305 | 2.0 | 5.0 | 0.00 | 0.00 | 0.00 | 44 | 1003.6 |
| 20260502215507 | 53 | 28 | 2.0 | 5.0 | 0.00 | 0.00 | 0.00 | 43 | 1003.7 |
| 20260502215103 | 53 | 314 | 3.0 | 9.0 | 0.00 | 0.00 | 0.00 | 40 | 1003.7 |
| 20260502215004 | 53 | 347 | 3.0 | 9.0 | 0.00 | 0.00 | 0.00 | 42 | 1003.7 |
| 20260502214504 | 53 | 324 | 4.0 | 9.0 | 0.00 | 0.00 | 0.00 | 39 | 1003.7 |
| 20260502214004 | 54 | 59 | 3.0 | 8.0 | 0.00 | 0.00 | 0.00 | 41 | 1003.7 |
| 20260502213508 | 54 | 314 | 3.0 | 7.0 | 0.00 | 0.00 | 0.00 | 41 | 1003.7 |
| 20260502213033 | 54 | 346 | 3.0 | 7.0 | 0.00 | 0.00 | 0.00 | 44 | 1003.7 |
| 20260502212511 | 54 | 341 | 3.0 | 8.0 | 0.00 | 0.00 | 0.00 | 40 | 1003.6 |
| 20260502212004 | 54 | 333 | 4.0 | 8.0 | 0.00 | 0.00 | 0.00 | 42 | 1003.6 |
| 20260502211504 | 54 | 331 | 3.0 | 6.0 | 0.00 | 0.00 | 0.00 | 41 | 1003.6 |
| 20260502211004 | 54 | 274 | 2.0 | 7.0 | 0.00 | 0.00 | 0.00 | 41 | 1003.6 |
| 20260502210504 | 54 | 324 | 3.0 | 8.0 | 0.00 | 0.00 | 0.00 | 40 | 1003.6 |
| 20260502210018 | 54 | 331 | 4.0 | 8.0 | 0.00 | 0.00 | 0.00 | 41 | 1003.6 |
| 20260502210005 | 54 | 46 | 4.0 | 8.0 | 0.00 | 0.00 | 0.00 | 41 | 1003.6 |
| 20260502205515 | 54 | 1 | 2.0 | 7.0 | 0.00 | 0.00 | 0.00 | 40 | 1003.5 |
| 20260502205015 | 54 | 1 | 2.0 | 6.0 | 0.00 | 0.00 | 0.00 | 45 | 1003.6 |
| 20260502204505 | 54 | 336 | 3.0 | 8.0 | 0.00 | 0.00 | 0.00 | 41 | 1003.6 |
| 20260502204004 | 54 | 117 | 3.0 | 8.0 | 0.00 | 0.00 | 0.00 | 42 | 1003.5 |
| 20260502203504 | 54 | 11 | 3.0 | 7.0 | 0.00 | 0.00 | 0.00 | 43 | 1003.6 |
| 20260502203020 | 54 | 338 | 4.0 | 7.0 | 0.00 | 0.00 | 0.00 | 40 | 1003.5 |
| 20260502203016 | 54 | 328 | 4.0 | 7.0 | 0.00 | 0.00 | 0.00 | 40 | 1003.5 |
| 20260502202504 | 54 | 117 | 3.0 | 7.0 | 0.00 | 0.00 | 0.00 | 42 | 1003.5 |
| 20260502202004 | 54 | 21 | 3.0 | 7.0 | 0.00 | 0.00 | 0.00 | 40 | 1003.6 |
| 20260502201504 | 55 | 13 | 4.0 | 7.0 | 0.00 | 0.00 | 0.00 | 40 | 1003.7 |
| 20260502201016 | 55 | 39 | 3.0 | 7.0 | 0.00 | 0.00 | 0.00 | 43 | 1003.7 |
| 20260502200504 | 55 | 89 | 3.0 | 7.0 | 0.00 | 0.00 | 0.00 | 42 | 1003.8 |
| 20260502200018 | 55 | 331 | 3.0 | 7.0 | 0.00 | 0.00 | 0.00 | 43 | 1003.7 |
| 20260502200004 | 55 | 317 | 3.0 | 7.0 | 0.00 | 0.00 | 0.00 | 43 | 1003.8 |
| 20260502195505 | 55 | 334 | 4.0 | 8.0 | 0.00 | 0.00 | 0.00 | 41 | 1003.9 |
| 20260502195018 | 55 | 316 | 3.0 | 8.0 | 0.00 | 0.00 | 0.00 | 39 | 1003.9 |
| 20260502195004 | 55 | 334 | 4.0 | 8.0 | 0.00 | 0.00 | 0.00 | 39 | 1003.9 |
| 20260502194506 | 56 | 347 | 4.0 | 9.0 | 0.00 | 0.00 | 0.00 | 40 | 1003.8 |
| 20260502194018 | 56 | 309 | 5.0 | 9.0 | 0.00 | 0.00 | 0.00 | 45 | 1003.9 |
| 20260502193504 | 56 | 347 | 4.0 | 10.0 | 0.00 | 0.00 | 0.00 | 38 | 1003.9 |
| 20260502193019 | 55 | 314 | 3.0 | 11.0 | 0.00 | 0.00 | 0.00 | 43 | 1003.8 |
| 20260502193015 | 55 | 33 | 3.0 | 11.0 | 0.00 | 0.00 | 0.00 | 43 | 1003.8 |
| 20260502192614 | 55 | 335 | 4.0 | 11.0 | 0.00 | 0.00 | 0.00 | 42 | 1003.9 |
| 20260502192505 | 55 | 327 | 4.0 | 11.0 | 0.00 | 0.00 | 0.00 | 44 | 1003.9 |
| 20260502192009 | 55 | 354 | 3.0 | 8.0 | 0.00 | 0.00 | 0.00 | 46 | 1004.0 |
| 20260502191505 | 54 | 339 | 3.0 | 8.0 | 0.00 | 0.00 | 0.00 | 42 | 1004.0 |
| 20260502191004 | 54 | 316 | 3.0 | 9.0 | 0.00 | 0.00 | 0.00 | 43 | 1004.1 |
| 20260502190518 | 54 | 328 | 3.0 | 9.0 | 0.00 | 0.00 | 0.00 | 42 | 1004.0 |
| 20260502190505 | 54 | 319 | 3.0 | 9.0 | 0.00 | 0.00 | 0.00 | 42 | 1004.0 |
| 20260502190018 | 55 | 33 | 4.0 | 10.0 | 0.00 | 0.00 | 0.00 | 40 | 1004.2 |
| 20260502190007 | 55 | 4 | 4.0 | 10.0 | 0.00 | 0.00 | 0.00 | 40 | 1004.2 |
| 20260502185504 | 55 | 20 | 3.0 | 12.0 | 0.00 | 0.00 | 0.00 | 43 | 1004.1 |
| 20260502185004 | 54 | 323 | 5.0 | 12.0 | 0.00 | 0.00 | 0.00 | 43 | 1004.2 |